PWSweather.com
Personal Weather Stations
Station Observations
WATERF01
WaterfordIE

WaterfordIE

Lat: 52.2412507, Lon: -7.1414691

Elevation: 65

Station Type: Davis Vantage Vue

www.waterfordweather.com

High Low Average
Temperature 43.5°F6.4°C 36.3°F2.4°C 40.4°F4.7°C
Dew Point 40.8°F4.9°C 35.4°F1.9°C 37.8°F3.2°C
Winds 15.0 mph 24.1 kmh Calm Calm 8.0 mph WNW12.9 kmh WNW
Wind Gusts 26.5 mph42.6 kmh -- 14.0 mph22.5 kmh
Humidity 97% 84% 90%
Pressure 29.41 in995.9 mb 29.18 in988.1 mb -
Precipitation 0.18 in4.6 mm - -
Hour Temp Dew Point Humidity Winds Wind Gusts Pressure Precip Precip Rate Daily Precip Total
12:00 AM 39.9°F4.4°C 37.8°F3.2°C 92% 9.2 mph W14.8 kmh W 19.6 mph31.5 kmh 29.41 in995.9 mb - 0.00 in0.0 mm 0.00 in0.0 mm
12:10 AM 40.3°F4.6°C 37.6°F3.1°C 90% 10.4 mph W16.7 kmh W 16.1 mph25.9 kmh 29.40 in995.6 mb - 0.00 in0.0 mm 0.00 in0.0 mm
12:20 AM 40.1°F4.5°C 36.9°F2.7°C 88% 12.7 mph W20.4 kmh W 19.6 mph31.5 kmh 29.40 in995.6 mb - 0.00 in0.0 mm 0.00 in0.0 mm
12:30 AM 40.4°F4.7°C 36.5°F2.5°C 86% 9.2 mph W14.8 kmh W 15.0 mph24.1 kmh 29.40 in995.6 mb - 0.00 in0.0 mm 0.00 in0.0 mm
12:40 AM 40.6°F4.8°C 36.4°F2.4°C 85% 10.4 mph W16.7 kmh W 13.8 mph22.2 kmh 29.40 in995.6 mb - 0.00 in0.0 mm 0.00 in0.0 mm
12:50 AM 40.3°F4.6°C 36.4°F2.4°C 86% 6.9 mph W11.1 kmh W 8.1 mph13.0 kmh 29.40 in995.6 mb - 0.00 in0.0 mm 0.00 in0.0 mm
01:00 AM 40.2°F4.6°C 36.1°F2.3°C 85% 6.9 mph WNW11.1 kmh WNW 13.8 mph22.2 kmh 29.40 in995.6 mb - 0.00 in0.0 mm 0.00 in0.0 mm
01:10 AM 40.4°F4.7°C 36.2°F2.3°C 85% 10.4 mph WNW16.7 kmh WNW 15.0 mph24.1 kmh 29.39 in995.3 mb - 0.00 in0.0 mm 0.00 in0.0 mm
01:20 AM 40.7°F4.8°C 36.2°F2.3°C 84% 9.2 mph W14.8 kmh W 18.4 mph29.6 kmh 29.39 in995.3 mb - 0.00 in0.0 mm 0.00 in0.0 mm
01:30 AM 41.0°F5.0°C 36.8°F2.7°C 85% 12.7 mph W20.4 kmh W 20.7 mph33.3 kmh 29.39 in995.3 mb - 0.00 in0.0 mm 0.00 in0.0 mm
01:40 AM 40.7°F4.8°C 36.5°F2.5°C 85% 10.4 mph W16.7 kmh W 16.1 mph25.9 kmh 29.39 in995.3 mb - 0.00 in0.0 mm 0.00 in0.0 mm
01:50 AM 40.5°F4.7°C 36.6°F2.6°C 86% 9.2 mph WNW14.8 kmh WNW 15.0 mph24.1 kmh 29.39 in995.3 mb - 0.00 in0.0 mm 0.00 in0.0 mm
02:00 AM 40.4°F4.7°C 36.8°F2.7°C 87% 10.4 mph WNW16.7 kmh WNW 18.4 mph29.6 kmh 29.39 in995.3 mb - 0.00 in0.0 mm 0.00 in0.0 mm
02:10 AM 40.1°F4.5°C 36.8°F2.7°C 88% 8.1 mph WNW13.0 kmh WNW 12.7 mph20.4 kmh 29.39 in995.3 mb - 0.00 in0.0 mm 0.00 in0.0 mm
02:20 AM 40.1°F4.5°C 36.8°F2.7°C 88% 10.4 mph WNW16.7 kmh WNW 16.1 mph25.9 kmh 29.40 in995.6 mb - 0.00 in0.0 mm 0.00 in0.0 mm
02:30 AM 39.9°F4.4°C 36.9°F2.7°C 89% 6.9 mph WNW11.1 kmh WNW 11.5 mph18.5 kmh 29.39 in995.3 mb - 0.00 in0.0 mm 0.00 in0.0 mm
02:40 AM 39.4°F4.1°C 36.5°F2.5°C 89% 4.6 mph WNW7.4 kmh WNW 9.2 mph14.8 kmh 29.39 in995.3 mb - 0.01 in0.3 mm 0.01 in0.3 mm
02:50 AM 39.5°F4.2°C 36.5°F2.5°C 89% 6.9 mph W11.1 kmh W 12.7 mph20.4 kmh 29.39 in995.3 mb - 0.00 in0.0 mm 0.01 in0.3 mm
03:00 AM 39.9°F4.4°C 36.6°F2.6°C 88% 9.2 mph W14.8 kmh W 16.1 mph25.9 kmh 29.39 in995.3 mb - 0.00 in0.0 mm 0.01 in0.3 mm
03:10 AM 40.3°F4.6°C 36.7°F2.6°C 87% 6.9 mph W11.1 kmh W 8.1 mph13.0 kmh 29.38 in994.9 mb - 0.00 in0.0 mm 0.01 in0.3 mm
03:20 AM 40.4°F4.7°C 36.5°F2.5°C 86% 8.1 mph W13.0 kmh W 13.8 mph22.2 kmh 29.38 in994.9 mb - 0.00 in0.0 mm 0.01 in0.3 mm
03:30 AM 40.4°F4.7°C 36.3°F2.4°C 85% 11.5 mph W18.5 kmh W 19.6 mph31.5 kmh 29.38 in994.9 mb - 0.00 in0.0 mm 0.01 in0.3 mm
03:40 AM 40.7°F4.8°C 36.5°F2.5°C 85% 6.9 mph WNW11.1 kmh WNW 13.8 mph22.2 kmh 29.38 in994.9 mb - 0.00 in0.0 mm 0.01 in0.3 mm
03:50 AM 40.7°F4.8°C 36.8°F2.7°C 86% 8.1 mph WNW13.0 kmh WNW 12.7 mph20.4 kmh 29.38 in994.9 mb - 0.00 in0.0 mm 0.01 in0.3 mm
04:00 AM 40.3°F4.6°C 36.5°F2.5°C 86% 8.1 mph WNW13.0 kmh WNW 13.8 mph22.2 kmh 29.37 in994.6 mb - 0.00 in0.0 mm 0.01 in0.3 mm
04:10 AM 40.0°F4.4°C 36.4°F2.4°C 87% 5.8 mph W9.3 kmh W 8.1 mph13.0 kmh 29.37 in994.6 mb - 0.00 in0.0 mm 0.01 in0.3 mm
04:20 AM 40.0°F4.4°C 36.4°F2.4°C 87% 5.8 mph W9.3 kmh W 13.8 mph22.2 kmh 29.36 in994.2 mb - 0.00 in0.0 mm 0.01 in0.3 mm
04:30 AM 39.9°F4.4°C 36.3°F2.4°C 87% 6.9 mph W11.1 kmh W 8.1 mph13.0 kmh 29.37 in994.6 mb - 0.00 in0.0 mm 0.01 in0.3 mm
04:40 AM 40.0°F4.4°C 36.1°F2.3°C 86% 8.1 mph W13.0 kmh W 11.5 mph18.5 kmh 29.37 in994.6 mb - 0.00 in0.0 mm 0.01 in0.3 mm
04:50 AM 40.3°F4.6°C 36.7°F2.6°C 87% 6.9 mph WNW11.1 kmh WNW 25.3 mph40.7 kmh 29.38 in994.9 mb - 0.00 in0.0 mm 0.01 in0.3 mm
05:00 AM 38.8°F3.8°C 36.4°F2.4°C 91% 6.9 mph W11.1 kmh W 13.8 mph22.2 kmh 29.37 in994.6 mb - 0.03 in0.8 mm 0.04 in1.0 mm
05:10 AM 37.6°F3.1°C 36.0°F2.2°C 94% 12.7 mph W20.4 kmh W 20.7 mph33.3 kmh 29.36 in994.2 mb - 0.01 in0.3 mm 0.05 in1.3 mm
05:20 AM 37.2°F2.9°C 35.9°F2.2°C 95% 5.8 mph WNW9.3 kmh WNW 11.5 mph18.5 kmh 29.37 in994.6 mb - 0.00 in0.0 mm 0.05 in1.3 mm
05:30 AM 37.2°F2.9°C 36.2°F2.3°C 96% 9.2 mph W14.8 kmh W 13.8 mph22.2 kmh 29.36 in994.2 mb - 0.01 in0.3 mm 0.06 in1.5 mm
05:40 AM 37.3°F2.9°C 36.3°F2.4°C 96% 8.1 mph W13.0 kmh W 11.5 mph18.5 kmh 29.35 in993.9 mb - 0.00 in0.0 mm 0.06 in1.5 mm
05:50 AM 37.2°F2.9°C 36.2°F2.3°C 96% 5.8 mph W9.3 kmh W 13.8 mph22.2 kmh 29.35 in993.9 mb - 0.01 in0.3 mm 0.07 in1.8 mm
06:00 AM 37.3°F2.9°C 36.3°F2.4°C 96% 12.7 mph W20.4 kmh W 16.1 mph25.9 kmh 29.35 in993.9 mb - 0.00 in0.0 mm 0.07 in1.8 mm
06:10 AM 37.5°F3.1°C 36.5°F2.5°C 96% 8.1 mph W13.0 kmh W 15.0 mph24.1 kmh 29.34 in993.6 mb - 0.00 in0.0 mm 0.07 in1.8 mm
06:20 AM 37.3°F2.9°C 36.3°F2.4°C 96% 6.9 mph W11.1 kmh W 11.5 mph18.5 kmh 29.35 in993.9 mb - 0.00 in0.0 mm 0.07 in1.8 mm
06:30 AM 37.3°F2.9°C 36.3°F2.4°C 96% 4.6 mph W7.4 kmh W 5.8 mph9.3 kmh 29.36 in994.2 mb - 0.00 in0.0 mm 0.07 in1.8 mm
06:40 AM 37.2°F2.9°C 36.2°F2.3°C 96% 6.9 mph WNW11.1 kmh WNW 9.2 mph14.8 kmh 29.36 in994.2 mb - 0.04 in1.0 mm 0.11 in2.8 mm
06:50 AM 36.6°F2.6°C 35.6°F2.0°C 96% 5.8 mph W9.3 kmh W 9.2 mph14.8 kmh 29.34 in993.6 mb - 0.03 in0.8 mm 0.13 in3.3 mm
07:00 AM 36.5°F2.5°C 35.5°F1.9°C 96% 4.6 mph WNW7.4 kmh WNW 8.1 mph13.0 kmh 29.34 in993.6 mb - 0.00 in0.0 mm 0.13 in3.3 mm
07:10 AM 36.4°F2.4°C 35.4°F1.9°C 96% 5.8 mph WNW9.3 kmh WNW 8.1 mph13.0 kmh 29.33 in993.2 mb - 0.00 in0.0 mm 0.13 in3.3 mm
07:20 AM 36.3°F2.4°C 35.5°F1.9°C 97% 8.1 mph W13.0 kmh W 9.2 mph14.8 kmh 29.33 in993.2 mb - 0.00 in0.0 mm 0.13 in3.3 mm
07:30 AM 36.3°F2.4°C 35.6°F2.0°C 97% 8.1 mph W13.0 kmh W 12.7 mph20.4 kmh 29.32 in992.9 mb - 0.00 in0.0 mm 0.13 in3.3 mm
07:40 AM 36.6°F2.6°C 35.8°F2.1°C 97% 8.1 mph W13.0 kmh W 12.7 mph20.4 kmh 29.32 in992.9 mb - 0.00 in0.0 mm 0.13 in3.3 mm
07:50 AM 36.9°F2.7°C 36.1°F2.3°C 97% 5.8 mph WNW9.3 kmh WNW 8.1 mph13.0 kmh 29.32 in992.9 mb - 0.01 in0.3 mm 0.14 in3.6 mm
08:00 AM 37.0°F2.8°C 36.2°F2.3°C 97% 4.6 mph WNW7.4 kmh WNW 9.2 mph14.8 kmh 29.30 in992.2 mb - 0.00 in0.0 mm 0.14 in3.6 mm
08:10 AM 36.9°F2.7°C 36.1°F2.3°C 97% 9.2 mph WNW14.8 kmh WNW 16.1 mph25.9 kmh 29.30 in992.2 mb - 0.00 in0.0 mm 0.14 in3.6 mm
08:20 AM 37.4°F3.0°C 36.7°F2.6°C 97% 8.1 mph W13.0 kmh W 12.7 mph20.4 kmh 29.30 in992.2 mb - 0.00 in0.0 mm 0.14 in3.6 mm
08:30 AM 37.7°F3.2°C 36.9°F2.7°C 97% 5.8 mph W9.3 kmh W 8.1 mph13.0 kmh 29.30 in992.2 mb - 0.00 in0.0 mm 0.14 in3.6 mm
08:40 AM 37.7°F3.2°C 36.9°F2.7°C 97% 4.6 mph WNW7.4 kmh WNW 8.1 mph13.0 kmh 29.30 in992.2 mb - 0.00 in0.0 mm 0.14 in3.6 mm
08:50 AM 37.6°F3.1°C 36.6°F2.6°C 96% 2.3 mph WSW3.7 kmh WSW 8.1 mph13.0 kmh 29.30 in992.2 mb - 0.00 in0.0 mm 0.14 in3.6 mm
09:00 AM 38.4°F3.6°C 37.3°F2.9°C 96% 3.5 mph W5.6 kmh W 5.8 mph9.3 kmh 29.30 in992.2 mb - 0.00 in0.0 mm 0.14 in3.6 mm
09:10 AM 39.4°F4.1°C 37.6°F3.1°C 93% 8.1 mph W13.0 kmh W 16.1 mph25.9 kmh 29.30 in992.2 mb - 0.00 in0.0 mm 0.14 in3.6 mm
09:20 AM 39.5°F4.2°C 37.1°F2.8°C 91% 5.8 mph W9.3 kmh W 8.1 mph13.0 kmh 29.29 in991.9 mb - 0.00 in0.0 mm 0.14 in3.6 mm
09:30 AM 39.1°F3.9°C 36.7°F2.6°C 91% 6.9 mph W11.1 kmh W 11.5 mph18.5 kmh 29.29 in991.9 mb - 0.00 in0.0 mm 0.14 in3.6 mm
09:40 AM 39.1°F3.9°C 37.0°F2.8°C 92% 5.8 mph W9.3 kmh W 11.5 mph18.5 kmh 29.29 in991.9 mb - 0.00 in0.0 mm 0.14 in3.6 mm
09:50 AM 39.2°F4.0°C 37.1°F2.8°C 92% 3.5 mph WSW5.6 kmh WSW 5.8 mph9.3 kmh 29.28 in991.5 mb - 0.00 in0.0 mm 0.14 in3.6 mm
10:00 AM 39.3°F4.1°C 37.2°F2.9°C 92% Calm Calm -- 29.29 in991.9 mb - 0.00 in0.0 mm 0.14 in3.6 mm
10:10 AM 39.9°F4.4°C 37.4°F3.0°C 91% 5.8 mph WNW9.3 kmh WNW 8.1 mph13.0 kmh 29.28 in991.5 mb - 0.00 in0.0 mm 0.14 in3.6 mm
10:20 AM 41.1°F5.1°C 37.9°F3.3°C 88% 8.1 mph WNW13.0 kmh WNW 15.0 mph24.1 kmh 29.28 in991.5 mb - 0.00 in0.0 mm 0.14 in3.6 mm
10:30 AM 42.0°F5.6°C 38.1°F3.4°C 86% 3.5 mph WNW5.6 kmh WNW 9.2 mph14.8 kmh 29.27 in991.2 mb - 0.00 in0.0 mm 0.14 in3.6 mm
10:40 AM 42.2°F5.7°C 38.0°F3.3°C 85% 6.9 mph WNW11.1 kmh WNW 13.8 mph22.2 kmh 29.26 in990.9 mb - 0.00 in0.0 mm 0.14 in3.6 mm
10:50 AM 42.2°F5.7°C 38.0°F3.3°C 85% 12.7 mph WNW20.4 kmh WNW 16.1 mph25.9 kmh 29.27 in991.2 mb - 0.00 in0.0 mm 0.14 in3.6 mm
11:00 AM 40.9°F4.9°C 38.1°F3.4°C 90% 10.4 mph W16.7 kmh W 13.8 mph22.2 kmh 29.27 in991.2 mb - 0.01 in0.3 mm 0.15 in3.8 mm
11:10 AM 39.6°F4.2°C 37.8°F3.2°C 93% 11.5 mph W18.5 kmh W 16.1 mph25.9 kmh 29.27 in991.2 mb - 0.01 in0.3 mm 0.16 in4.1 mm
11:20 AM 39.5°F4.2°C 37.9°F3.3°C 94% 6.9 mph W11.1 kmh W 9.2 mph14.8 kmh 29.27 in991.2 mb - 0.00 in0.0 mm 0.16 in4.1 mm
11:30 AM 40.6°F4.8°C 38.4°F3.6°C 92% 5.8 mph WNW9.3 kmh WNW 9.2 mph14.8 kmh 29.26 in990.9 mb - 0.00 in0.0 mm 0.16 in4.1 mm
11:40 AM 41.2°F5.1°C 38.8°F3.8°C 91% 6.9 mph W11.1 kmh W 12.7 mph20.4 kmh 29.25 in990.5 mb - 0.00 in0.0 mm 0.16 in4.1 mm
11:50 AM 41.4°F5.2°C 38.7°F3.7°C 90% 10.4 mph W16.7 kmh W 21.9 mph35.2 kmh 29.25 in990.5 mb - 0.01 in0.3 mm 0.17 in4.3 mm
12:00 PM 41.5°F5.3°C 38.8°F3.8°C 90% 9.2 mph W14.8 kmh W 11.5 mph18.5 kmh 29.24 in990.2 mb - 0.00 in0.0 mm 0.17 in4.3 mm
12:10 PM 41.9°F5.5°C 39.2°F4.0°C 90% 5.8 mph WNW9.3 kmh WNW 9.2 mph14.8 kmh 29.24 in990.2 mb - 0.00 in0.0 mm 0.17 in4.3 mm
12:20 PM 42.5°F5.8°C 39.8°F4.3°C 90% 9.2 mph WSW14.8 kmh WSW 13.8 mph22.2 kmh 29.23 in989.8 mb - 0.00 in0.0 mm 0.17 in4.3 mm
12:30 PM 42.8°F6.0°C 40.1°F4.5°C 90% 9.2 mph W14.8 kmh W 13.8 mph22.2 kmh 29.22 in989.5 mb - 0.00 in0.0 mm 0.17 in4.3 mm
12:40 PM 43.1°F6.2°C 40.1°F4.5°C 89% 8.1 mph W13.0 kmh W 12.7 mph20.4 kmh 29.21 in989.2 mb - 0.00 in0.0 mm 0.17 in4.3 mm
12:50 PM 43.2°F6.2°C 39.9°F4.4°C 88% 9.2 mph W14.8 kmh W 16.1 mph25.9 kmh 29.20 in988.8 mb - 0.00 in0.0 mm 0.17 in4.3 mm
01:00 PM 42.9°F6.1°C 39.3°F4.1°C 87% 11.5 mph WNW18.5 kmh WNW 16.1 mph25.9 kmh 29.19 in988.5 mb - 0.00 in0.0 mm 0.17 in4.3 mm
01:10 PM 42.7°F5.9°C 39.4°F4.1°C 88% 11.5 mph W18.5 kmh W 15.0 mph24.1 kmh 29.19 in988.5 mb - 0.00 in0.0 mm 0.17 in4.3 mm
01:20 PM 42.5°F5.8°C 39.5°F4.2°C 89% 9.2 mph W14.8 kmh W 19.6 mph31.5 kmh 29.18 in988.1 mb - 0.00 in0.0 mm 0.17 in4.3 mm
01:30 PM 42.2°F5.7°C 39.4°F4.1°C 90% 9.2 mph W14.8 kmh W 13.8 mph22.2 kmh 29.18 in988.1 mb - 0.00 in0.0 mm 0.17 in4.3 mm
01:40 PM 42.0°F5.6°C 39.3°F4.1°C 90% 13.8 mph W22.2 kmh W 25.3 mph40.7 kmh 29.18 in988.1 mb - 0.00 in0.0 mm 0.17 in4.3 mm
01:50 PM 41.8°F5.4°C 39.1°F3.9°C 90% 13.8 mph WNW22.2 kmh WNW 21.9 mph35.2 kmh 29.18 in988.1 mb - 0.00 in0.0 mm 0.17 in4.3 mm
02:00 PM 41.3°F5.2°C 38.9°F3.8°C 91% 10.4 mph W16.7 kmh W 16.1 mph25.9 kmh 29.18 in988.1 mb - 0.01 in0.3 mm 0.18 in4.6 mm
02:10 PM 41.8°F5.4°C 39.4°F4.1°C 91% 8.1 mph W13.0 kmh W 13.8 mph22.2 kmh 29.18 in988.1 mb - 0.00 in0.0 mm 0.18 in4.6 mm
02:20 PM 42.0°F5.6°C 39.2°F4.0°C 90% 5.8 mph WNW9.3 kmh WNW 11.5 mph18.5 kmh 29.18 in988.1 mb - 0.00 in0.0 mm 0.18 in4.6 mm
02:30 PM 42.2°F5.7°C 39.5°F4.2°C 90% 9.2 mph W14.8 kmh W 13.8 mph22.2 kmh 29.19 in988.5 mb - 0.00 in0.0 mm 0.18 in4.6 mm
02:40 PM 42.8°F6.0°C 40.4°F4.7°C 91% 6.9 mph WNW11.1 kmh WNW 15.0 mph24.1 kmh 29.19 in988.5 mb - 0.00 in0.0 mm 0.18 in4.6 mm
02:50 PM 42.9°F6.1°C 40.5°F4.7°C 91% 6.9 mph WNW11.1 kmh WNW 11.5 mph18.5 kmh 29.19 in988.5 mb - 0.00 in0.0 mm 0.18 in4.6 mm
03:00 PM 43.3°F6.3°C 40.6°F4.8°C 90% 13.8 mph NW22.2 kmh NW 21.9 mph35.2 kmh 29.20 in988.8 mb - 0.00 in0.0 mm 0.18 in4.6 mm
03:10 PM 43.5°F6.4°C 40.8°F4.9°C 90% 9.2 mph NW14.8 kmh NW 16.1 mph25.9 kmh 29.20 in988.8 mb - 0.00 in0.0 mm 0.18 in4.6 mm
03:20 PM 43.5°F6.4°C 40.4°F4.7°C 89% 11.5 mph NW18.5 kmh NW 23.0 mph37.0 kmh 29.21 in989.2 mb - 0.00 in0.0 mm 0.18 in4.6 mm
03:30 PM 43.5°F6.4°C 40.2°F4.6°C 88% 15.0 mph NW24.1 kmh NW 26.5 mph42.6 kmh 29.21 in989.2 mb - 0.00 in0.0 mm 0.18 in4.6 mm
03:40 PM 43.3°F6.3°C 40.0°F4.4°C 88% 11.5 mph NW18.5 kmh NW 19.6 mph31.5 kmh 29.23 in989.8 mb - 0.00 in0.0 mm 0.18 in4.6 mm
03:50 PM 43.1°F6.2°C 40.1°F4.5°C 89% 12.7 mph NW20.4 kmh NW 16.1 mph25.9 kmh 29.23 in989.8 mb - 0.00 in0.0 mm 0.18 in4.6 mm
04:00 PM 42.7°F5.9°C 39.7°F4.3°C 89% 12.7 mph NW20.4 kmh NW 20.7 mph33.3 kmh 29.24 in990.2 mb - 0.00 in0.0 mm 0.18 in4.6 mm
04:10 PM 42.6°F5.9°C 39.6°F4.2°C 89% 11.5 mph NW18.5 kmh NW 16.1 mph25.9 kmh 29.25 in990.5 mb - 0.00 in0.0 mm 0.18 in4.6 mm
04:20 PM 42.5°F5.8°C 39.5°F4.2°C 89% 11.5 mph NW18.5 kmh NW 19.6 mph31.5 kmh 29.25 in990.5 mb - 0.00 in0.0 mm 0.18 in4.6 mm
04:30 PM 42.5°F5.8°C 39.2°F4.0°C 88% 9.2 mph NW14.8 kmh NW 13.8 mph22.2 kmh 29.26 in990.9 mb - 0.00 in0.0 mm 0.18 in4.6 mm
04:40 PM 42.3°F5.7°C 39.3°F4.1°C 89% 10.4 mph NW16.7 kmh NW 13.8 mph22.2 kmh 29.27 in991.2 mb - 0.00 in0.0 mm 0.18 in4.6 mm
04:50 PM 42.2°F5.7°C 39.1°F3.9°C 89% 9.2 mph NW14.8 kmh NW 16.1 mph25.9 kmh 29.28 in991.5 mb - 0.00 in0.0 mm 0.18 in4.6 mm
05:00 PM 42.1°F5.6°C 39.1°F3.9°C 89% 9.2 mph NW14.8 kmh NW 13.8 mph22.2 kmh 29.29 in991.9 mb - 0.00 in0.0 mm 0.18 in4.6 mm
05:10 PM 42.1°F5.6°C 39.1°F3.9°C 89% 8.1 mph WNW13.0 kmh WNW 13.8 mph22.2 kmh 29.29 in991.9 mb - 0.00 in0.0 mm 0.18 in4.6 mm
05:20 PM 42.2°F5.7°C 39.2°F4.0°C 89% 9.2 mph NW14.8 kmh NW 18.4 mph29.6 kmh 29.29 in991.9 mb - 0.00 in0.0 mm 0.18 in4.6 mm
05:30 PM 42.2°F5.7°C 39.2°F4.0°C 89% 12.7 mph WNW20.4 kmh WNW 18.4 mph29.6 kmh 29.30 in992.2 mb - 0.00 in0.0 mm 0.18 in4.6 mm
05:40 PM 42.1°F5.6°C 39.1°F3.9°C 89% 9.2 mph NW14.8 kmh NW 18.4 mph29.6 kmh 29.31 in992.6 mb - 0.00 in0.0 mm 0.18 in4.6 mm
05:50 PM 41.9°F5.5°C 38.6°F3.7°C 88% 12.7 mph NW20.4 kmh NW 19.6 mph31.5 kmh 29.31 in992.6 mb - 0.00 in0.0 mm 0.18 in4.6 mm
06:00 PM 41.8°F5.4°C 38.5°F3.6°C 88% 15.0 mph NW24.1 kmh NW 20.7 mph33.3 kmh 29.31 in992.6 mb - 0.00 in0.0 mm 0.18 in4.6 mm
06:10 PM 41.7°F5.4°C 38.4°F3.6°C 88% 10.4 mph NW16.7 kmh NW 11.5 mph18.5 kmh 29.32 in992.9 mb - 0.00 in0.0 mm 0.18 in4.6 mm
06:20 PM 41.3°F5.2°C 38.0°F3.3°C 88% 8.1 mph WNW13.0 kmh WNW 11.5 mph18.5 kmh 29.32 in992.9 mb - 0.00 in0.0 mm 0.18 in4.6 mm
06:30 PM 40.9°F4.9°C 37.9°F3.3°C 89% 4.6 mph WNW7.4 kmh WNW 11.5 mph18.5 kmh 29.33 in993.2 mb - 0.00 in0.0 mm 0.18 in4.6 mm
06:40 PM 40.8°F4.9°C 37.8°F3.2°C 89% 9.2 mph NW14.8 kmh NW 12.7 mph20.4 kmh 29.34 in993.6 mb - 0.00 in0.0 mm 0.18 in4.6 mm
06:50 PM 40.7°F4.8°C 37.7°F3.2°C 89% 11.5 mph NW18.5 kmh NW 18.4 mph29.6 kmh 29.34 in993.6 mb - 0.00 in0.0 mm 0.18 in4.6 mm
07:00 PM 40.8°F4.9°C 37.8°F3.2°C 89% 10.4 mph NW16.7 kmh NW 13.8 mph22.2 kmh 29.34 in993.6 mb - 0.00 in0.0 mm 0.18 in4.6 mm
07:10 PM 40.8°F4.9°C 37.8°F3.2°C 89% 9.2 mph WNW14.8 kmh WNW 12.7 mph20.4 kmh 29.34 in993.6 mb - 0.00 in0.0 mm 0.18 in4.6 mm
07:20 PM 40.7°F4.8°C 37.7°F3.2°C 89% 8.1 mph NW13.0 kmh NW 13.8 mph22.2 kmh 29.34 in993.6 mb - 0.00 in0.0 mm 0.18 in4.6 mm
07:30 PM 40.7°F4.8°C 37.7°F3.2°C 89% 6.9 mph NW11.1 kmh NW 13.8 mph22.2 kmh 29.35 in993.9 mb - 0.00 in0.0 mm 0.18 in4.6 mm
07:40 PM 40.8°F4.9°C 37.8°F3.2°C 89% 9.2 mph NW14.8 kmh NW 19.6 mph31.5 kmh 29.35 in993.9 mb - 0.00 in0.0 mm 0.18 in4.6 mm
07:50 PM 40.8°F4.9°C 37.8°F3.2°C 89% 8.1 mph NW13.0 kmh NW 18.4 mph29.6 kmh 29.34 in993.6 mb - 0.00 in0.0 mm 0.18 in4.6 mm
08:00 PM 40.8°F4.9°C 37.8°F3.2°C 89% 10.4 mph NW16.7 kmh NW 13.8 mph22.2 kmh 29.35 in993.9 mb - 0.00 in0.0 mm 0.18 in4.6 mm
08:10 PM 40.9°F4.9°C 37.9°F3.3°C 89% 8.1 mph NW13.0 kmh NW 15.0 mph24.1 kmh 29.36 in994.2 mb - 0.00 in0.0 mm 0.18 in4.6 mm
08:20 PM 40.9°F4.9°C 37.9°F3.3°C 89% 9.2 mph NW14.8 kmh NW 13.8 mph22.2 kmh 29.36 in994.2 mb - 0.00 in0.0 mm 0.18 in4.6 mm
08:30 PM 40.7°F4.8°C 37.7°F3.2°C 89% 9.2 mph NW14.8 kmh NW 13.8 mph22.2 kmh 29.36 in994.2 mb - 0.00 in0.0 mm 0.18 in4.6 mm
08:40 PM 40.5°F4.7°C 37.8°F3.2°C 90% 9.2 mph NW14.8 kmh NW 12.7 mph20.4 kmh 29.37 in994.6 mb - 0.00 in0.0 mm 0.18 in4.6 mm
08:50 PM 40.3°F4.6°C 37.6°F3.1°C 90% 8.1 mph NW13.0 kmh NW 13.8 mph22.2 kmh 29.37 in994.6 mb - 0.00 in0.0 mm 0.18 in4.6 mm
09:00 PM 40.0°F4.4°C 37.3°F2.9°C 90% 5.8 mph WNW9.3 kmh WNW 9.2 mph14.8 kmh 29.37 in994.6 mb - 0.00 in0.0 mm 0.18 in4.6 mm
09:10 PM 39.9°F4.4°C 37.5°F3.1°C 91% 5.8 mph WNW9.3 kmh WNW 11.5 mph18.5 kmh 29.37 in994.6 mb - 0.00 in0.0 mm 0.18 in4.6 mm
09:20 PM 40.5°F4.7°C 37.8°F3.2°C 90% 6.9 mph WNW11.1 kmh WNW 11.5 mph18.5 kmh 29.37 in994.6 mb - 0.00 in0.0 mm 0.18 in4.6 mm
09:30 PM 40.9°F4.9°C 37.9°F3.3°C 89% 4.6 mph WNW7.4 kmh WNW 8.1 mph13.0 kmh 29.38 in994.9 mb - 0.00 in0.0 mm 0.18 in4.6 mm
09:40 PM 40.8°F4.9°C 38.1°F3.4°C 90% 4.6 mph WNW7.4 kmh WNW 9.2 mph14.8 kmh 29.38 in994.9 mb - 0.00 in0.0 mm 0.18 in4.6 mm
09:50 PM 40.5°F4.7°C 37.8°F3.2°C 90% 4.6 mph WNW7.4 kmh WNW 8.1 mph13.0 kmh 29.38 in994.9 mb - 0.00 in0.0 mm 0.18 in4.6 mm
10:00 PM 40.2°F4.6°C 37.7°F3.2°C 91% 5.8 mph WNW9.3 kmh WNW 8.1 mph13.0 kmh 29.38 in994.9 mb - 0.00 in0.0 mm 0.18 in4.6 mm
10:10 PM 40.0°F4.4°C 37.6°F3.1°C 91% 4.6 mph WNW7.4 kmh WNW 8.1 mph13.0 kmh 29.38 in994.9 mb - 0.00 in0.0 mm 0.18 in4.6 mm
10:20 PM 40.1°F4.5°C 38.0°F3.3°C 92% 4.6 mph WNW7.4 kmh WNW 6.9 mph11.1 kmh 29.38 in994.9 mb - 0.00 in0.0 mm 0.18 in4.6 mm
10:30 PM 40.3°F4.6°C 38.2°F3.4°C 92% 4.6 mph NW7.4 kmh NW 8.1 mph13.0 kmh 29.38 in994.9 mb - 0.00 in0.0 mm 0.18 in4.6 mm
10:40 PM 40.6°F4.8°C 38.5°F3.6°C 92% 5.8 mph WNW9.3 kmh WNW 9.2 mph14.8 kmh 29.39 in995.3 mb - 0.00 in0.0 mm 0.18 in4.6 mm
10:50 PM 40.8°F4.9°C 38.7°F3.7°C 92% 8.1 mph WNW13.0 kmh WNW 12.7 mph20.4 kmh 29.39 in995.3 mb - 0.00 in0.0 mm 0.18 in4.6 mm
11:00 PM 40.7°F4.8°C 38.5°F3.6°C 92% 10.4 mph WNW16.7 kmh WNW 16.1 mph25.9 kmh 29.39 in995.3 mb - 0.00 in0.0 mm 0.18 in4.6 mm
11:10 PM 40.8°F4.9°C 38.7°F3.7°C 92% 10.4 mph WNW16.7 kmh WNW 16.1 mph25.9 kmh 29.39 in995.3 mb - 0.00 in0.0 mm 0.18 in4.6 mm
11:20 PM 40.8°F4.9°C 38.7°F3.7°C 92% 10.4 mph NW16.7 kmh NW 16.1 mph25.9 kmh 29.40 in995.6 mb - 0.00 in0.0 mm 0.18 in4.6 mm
11:30 PM 40.9°F4.9°C 38.8°F3.8°C 92% 8.1 mph WNW13.0 kmh WNW 16.1 mph25.9 kmh 29.40 in995.6 mb - 0.00 in0.0 mm 0.18 in4.6 mm
11:40 PM 41.0°F5.0°C 38.9°F3.8°C 92% 11.5 mph NW18.5 kmh NW 15.0 mph24.1 kmh 29.41 in995.9 mb - 0.00 in0.0 mm 0.18 in4.6 mm
11:50 PM 41.3°F5.2°C 38.9°F3.8°C 91% 12.7 mph NW20.4 kmh NW 21.9 mph35.2 kmh 29.41 in995.9 mb - 0.00 in0.0 mm 0.18 in4.6 mm